Time;durP1;ratioP1;P1;durP2;ratioP2;P2;SDS_P1;SDS_P2;PMS_P1;PMS_P2;Temp;Humidity;BMP_temperature;BMP_pressure;BME280_temperature;BME280_humidity;BME280_pressure;Samples;Min_cycle;Max_cycle;Signal;HPM_P1;HPM_P2
2023/03/07 00:01:31;;;;;;;19.00;10.60;;;;;;;3.10;65.83;100363.06;106365;1251;72579;-84
2023/03/07 00:03:59;;;;;;;24.30;11.50;;;;;;;3.07;66.08;100361.08;105977;1255;60668;-85
2023/03/07 00:06:29;;;;;;;14.00;8.90;;;;;;;3.05;66.26;100361.32;106236;1254;61259;-82
2023/03/07 00:08:58;;;;;;;21.10;10.90;;;;;;;3.03;66.45;100362.25;106041;1251;73982;-83
2023/03/07 00:11:29;;;;;;;14.90;9.10;;;;;;;3.00;66.66;100362.52;106039;1256;64820;-83
2023/03/07 00:13:58;;;;;;;13.30;8.40;;;;;;;3.00;66.83;100363.22;105956;1254;73669;-83
2023/03/07 00:16:26;;;;;;;15.50;9.50;;;;;;;2.99;67.03;100361.71;106248;1257;61963;-85
2023/03/07 00:18:55;;;;;;;13.00;9.10;;;;;;;2.99;67.18;100361.89;106066;1253;61036;-86
2023/03/07 00:21:26;;;;;;;15.50;9.20;;;;;;;2.99;67.47;100358.25;106391;1251;73032;-82
2023/03/07 00:23:54;;;;;;;15.00;9.90;;;;;;;3.01;67.50;100354.90;106987;1253;64038;-80
2023/03/07 00:26:23;;;;;;;14.00;8.90;;;;;;;3.03;67.57;100355.88;106751;1251;73934;-81
2023/03/07 00:28:52;;;;;;;13.90;9.10;;;;;;;3.03;67.69;100357.23;109211;1251;59584;-84
2023/03/07 00:31:23;;;;;;;17.10;9.60;;;;;;;3.03;67.77;100355.17;109865;1251;60307;-84
2023/03/07 00:33:53;;;;;;;20.00;11.60;;;;;;;3.02;67.67;100352.98;109611;1250;73173;-83
2023/03/07 00:36:22;;;;;;;15.00;9.50;;;;;;;2.99;67.83;100350.81;109695;1251;63605;-83
2023/03/07 00:38:53;;;;;;;20.10;9.20;;;;;;;2.97;68.02;100354.16;109683;1251;72595;-83
2023/03/07 00:41:26;;;;;;;13.60;9.60;;;;;;;2.93;68.01;100352.91;109906;1251;60873;-83
2023/03/07 00:43:54;;;;;;;16.50;9.20;;;;;;;2.93;68.03;100348.27;109695;1253;60254;-85
2023/03/07 00:46:23;;;;;;;15.40;8.80;;;;;;;2.94;68.28;100348.58;109871;1251;72979;-82
2023/03/07 00:48:52;;;;;;;15.50;10.00;;;;;;;2.96;68.36;100349.20;109872;1251;63864;-85
2023/03/07 00:51:27;;;;;;;17.80;9.10;;;;;;;2.97;68.31;100350.39;109887;1251;73893;-84
2023/03/07 00:53:56;;;;;;;19.60;10.80;;;;;;;3.00;68.50;100350.42;109773;1251;59217;-82
2023/03/07 00:56:25;;;;;;;18.80;10.20;;;;;;;3.05;68.33;100353.05;109681;1252;60272;-84
2023/03/07 00:58:54;;;;;;;15.50;9.90;;;;;;;3.06;68.10;100352.99;109536;1252;72050;-83
2023/03/07 01:01:23;;;;;;;16.70;11.00;;;;;;;3.05;68.27;100351.13;106221;1252;63795;-84
2023/03/07 01:03:52;;;;;;;19.30;11.20;;;;;;;3.04;68.13;100348.77;106248;1255;73342;-84
2023/03/07 01:06:24;;;;;;;18.50;11.50;;;;;;;3.00;68.22;100346.13;106277;1253;59613;-86
2023/03/07 01:08:55;;;;;;;17.40;9.90;;;;;;;2.95;68.29;100348.38;106261;1253;61199;-84
2023/03/07 01:11:26;;;;;;;19.70;10.70;;;;;;;2.90;68.68;100345.59;106109;1255;73694;-85
2023/03/07 01:13:56;;;;;;;18.40;10.00;;;;;;;2.89;68.83;100343.20;106111;1253;64383;-83
2023/03/07 01:16:26;;;;;;;14.40;9.60;;;;;;;2.87;69.18;100339.64;106017;1252;73356;-82
2023/03/07 01:18:56;;;;;;;18.50;10.50;;;;;;;2.86;69.46;100336.73;105974;1253;60871;-87
2023/03/07 01:21:29;;;;;;;13.80;9.80;;;;;;;2.86;69.61;100335.01;106001;1256;60234;-86
2023/03/07 01:23:58;;;;;;;15.90;10.50;;;;;;;2.88;69.79;100333.23;106259;1252;73709;-87
2023/03/07 01:26:29;;;;;;;13.50;8.90;;;;;;;2.90;70.02;100332.77;106042;1254;64530;-84
2023/03/07 01:29:00;;;;;;;14.90;9.60;;;;;;;2.92;69.97;100330.66;106051;1255;73728;-86
2023/03/07 01:31:31;;;;;;;17.70;11.40;;;;;;;2.91;69.96;100327.06;105971;1252;59666;-83
2023/03/07 01:34:02;;;;;;;16.50;10.60;;;;;;;2.91;70.06;100326.39;106183;1253;60736;-85
2023/03/07 01:36:33;;;;;;;17.00;11.50;;;;;;;2.89;70.18;100325.05;106229;1253;73778;-84
2023/03/07 01:39:06;;;;;;;15.40;10.40;;;;;;;2.88;70.19;100327.16;106311;1255;65446;-85
2023/03/07 01:41:38;;;;;;;19.60;11.00;;;;;;;2.86;70.40;100324.11;105985;1253;73661;-86
2023/03/07 01:44:16;;;;;;;16.80;10.70;;;;;;;2.82;70.89;100324.95;106090;1255;62170;-86
2023/03/07 01:46:49;;;;;;;17.40;10.60;;;;;;;2.80;71.09;100326.05;106481;1252;61370;-82
2023/03/07 01:49:27;;;;;;;15.10;10.10;;;;;;;2.80;71.52;100325.02;106814;1253;72752;-82
2023/03/07 01:52:10;;;;;;;17.00;10.70;;;;;;;2.80;71.70;100320.73;106685;1255;64570;-84
2023/03/07 01:54:58;;;;;;;16.90;10.80;;;;;;;2.80;71.85;100318.98;108238;1252;72596;-83
2023/03/07 01:57:32;;;;;;;17.80;10.50;;;;;;;2.82;72.03;100309.95;109644;1252;59371;-85
2023/03/07 02:00:07;;;;;;;18.10;10.60;;;;;;;2.82;72.12;100312.20;109062;1252;60379;-82
2023/03/07 02:02:44;;;;;;;19.80;12.10;;;;;;;2.81;72.41;100312.74;108689;1255;73036;-84
2023/03/07 02:05:49;;;;;;;16.90;10.70;;;;;;;2.78;72.67;100313.02;107525;1251;64381;-84
2023/03/07 02:08:17;;;;;;;16.30;9.80;;;;;;;2.75;72.97;100315.19;109653;1253;72593;-86
2023/03/07 02:10:52;;;;;;;14.50;10.20;;;;;;;2.73;73.34;100314.03;109441;1256;60922;-86
2023/03/07 02:13:21;;;;;;;18.90;10.40;;;;;;;2.74;73.69;100310.38;108643;1253;60111;-85
2023/03/07 02:15:57;;;;;;;15.10;9.60;;;;;;;2.76;73.95;100307.36;106320;1254;74020;-86
2023/03/07 02:18:31;;;;;;;15.80;9.40;;;;;;;2.78;74.02;100304.88;105960;1253;64511;-84
2023/03/07 02:21:22;;;;;;;17.90;10.10;;;;;;;2.82;74.18;100302.86;108602;1252;73344;-83
2023/03/07 02:24:04;;;;;;;18.60;11.10;;;;;;;2.85;74.36;100305.34;109439;1256;59623;-84
2023/03/07 02:26:49;;;;;;;17.20;10.10;;;;;;;2.86;74.59;100303.74;107184;1257;60072;-83
2023/03/07 02:29:23;;;;;;;13.80;8.90;;;;;;;2.86;74.78;100299.63;107254;1259;73612;-83
2023/03/07 02:31:51;;;;;;;16.00;9.20;;;;;;;2.87;75.15;100295.11;109073;1254;64567;-82
2023/03/07 02:34:27;;;;;;;16.80;10.30;;;;;;;2.87;75.53;100295.29;109430;1254;71665;-82
2023/03/07 02:37:12;;;;;;;15.00;9.30;;;;;;;2.87;75.79;100295.95;109413;1255;61297;-82
2023/03/07 02:39:45;;;;;;;11.70;8.40;;;;;;;2.89;76.18;100299.67;109504;1254;59931;-83
2023/03/07 02:42:21;;;;;;;12.40;8.40;;;;;;;2.92;76.43;100295.44;109406;1254;72959;-84
2023/03/07 02:44:59;;;;;;;12.10;8.10;;;;;;;2.96;76.56;100295.66;109437;1254;64259;-83
2023/03/07 02:47:33;;;;;;;14.30;9.10;;;;;;;2.99;76.55;100292.45;109469;1254;71307;-82
2023/03/07 02:50:02;;;;;;;17.00;10.00;;;;;;;3.01;76.60;100291.67;109439;1254;59495;-84
2023/03/07 02:52:32;;;;;;;15.00;9.30;;;;;;;3.03;76.40;100291.27;109497;1255;60835;-82
2023/03/07 02:55:00;;;;;;;14.50;9.90;;;;;;;3.04;76.35;100291.23;109577;1257;72975;-83
2023/03/07 02:57:32;;;;;;;14.10;8.80;;;;;;;3.06;76.25;100292.71;109493;1253;63523;-84
2023/03/07 03:00:06;;;;;;;11.50;8.20;;;;;;;3.04;76.51;100290.54;106510;1254;72744;-83
2023/03/07 03:02:34;;;;;;;15.80;9.70;;;;;;;3.02;76.73;100288.54;105960;1253;61968;-86
2023/03/07 03:05:08;;;;;;;17.10;9.80;;;;;;;3.02;76.87;100289.41;105924;1253;61573;-85
2023/03/07 03:07:37;;;;;;;14.90;9.20;;;;;;;3.03;77.09;100284.36;106139;1253;74011;-81
2023/03/07 03:10:06;;;;;;;11.50;8.00;;;;;;;3.05;77.25;100285.15;106126;1254;63420;-83
2023/03/07 03:12:36;;;;;;;13.90;9.00;;;;;;;3.08;77.09;100283.69;106743;1253;72283;-80
2023/03/07 03:15:07;;;;;;;17.00;10.30;;;;;;;3.07;77.04;100282.84;106353;1254;60451;-86
2023/03/07 03:17:36;;;;;;;18.30;10.00;;;;;;;3.05;76.89;100284.29;105732;1253;61235;-84
2023/03/07 03:20:06;;;;;;;15.40;8.80;;;;;;;3.04;77.00;100283.64;106107;1253;75327;-86
2023/03/07 03:22:40;;;;;;;17.00;8.80;;;;;;;3.04;76.99;100287.45;105971;1255;64461;-85
2023/03/07 03:25:10;;;;;;;15.30;9.50;;;;;;;3.03;77.10;100279.72;105971;1253;73365;-84
2023/03/07 03:27:39;;;;;;;16.10;8.90;;;;;;;3.03;77.39;100275.23;105977;1254;61058;-84
2023/03/07 03:30:10;;;;;;;13.40;9.50;;;;;;;3.03;77.44;100273.67;105987;1253;60477;-84
2023/03/07 03:32:39;;;;;;;14.90;8.90;;;;;;;3.01;77.64;100271.13;105923;1257;75486;-85
2023/03/07 03:35:08;;;;;;;14.40;8.90;;;;;;;3.00;78.06;100270.14;105901;1257;64570;-86
2023/03/07 03:37:37;;;;;;;13.40;9.30;;;;;;;2.98;78.03;100271.40;105939;1256;72638;-84
2023/03/07 03:40:13;;;;;;;23.70;15.10;;;;;;;2.95;78.13;100268.23;106977;1254;60524;-83
2023/03/07 03:42:43;;;;;;;18.60;11.30;;;;;;;2.92;78.17;100268.52;106074;1253;60617;-84
2023/03/07 03:45:13;;;;;;;18.10;11.30;;;;;;;2.90;78.11;100266.52;105964;1255;74868;-85
2023/03/07 03:47:42;;;;;;;15.60;9.50;;;;;;;2.87;78.15;100264.02;105906;1255;64865;-85
2023/03/07 03:50:16;;;;;;;15.90;9.20;;;;;;;2.83;78.44;100263.79;105942;1253;73667;-85
2023/03/07 03:52:46;;;;;;;16.20;9.30;;;;;;;2.80;78.75;100263.39;106028;1251;62801;-83
2023/03/07 03:55:15;;;;;;;16.10;9.30;;;;;;;2.78;78.92;100264.66;105874;1253;61120;-84
2023/03/07 03:57:44;;;;;;;11.50;8.60;;;;;;;2.79;79.25;100264.64;105984;1253;75473;-84
2023/03/07 04:00:13;;;;;;;13.20;9.00;;;;;;;2.81;79.50;100265.27;105891;1253;63558;-84
2023/03/07 04:02:42;;;;;;;18.90;10.80;;;;;;;2.82;79.60;100264.89;105914;1255;74076;-85
2023/03/07 04:05:12;;;;;;;20.70;11.50;;;;;;;2.82;79.60;100264.34;105968;1258;60572;-84
2023/03/07 04:07:40;;;;;;;17.90;10.60;;;;;;;2.83;79.60;100265.21;105934;1253;61453;-85
2023/03/07 04:10:09;;;;;;;20.30;12.20;;;;;;;2.81;79.52;100262.00;106018;1257;74792;-83
2023/03/07 04:12:40;;;;;;;16.10;11.30;;;;;;;2.79;79.64;100259.63;106867;1252;64930;-84
2023/03/07 04:15:09;;;;;;;22.00;12.90;;;;;;;2.79;79.77;100259.97;109179;1253;73600;-85
2023/03/07 04:17:40;;;;;;;24.10;14.20;;;;;;;2.79;79.85;100261.36;109463;1253;60038;-84
2023/03/07 04:20:16;;;;;;;20.00;13.70;;;;;;;2.80;79.96;100265.48;106030;1253;61619;-85
2023/03/07 04:22:46;;;;;;;14.30;10.20;;;;;;;2.81;80.13;100268.70;106741;1253;74737;-83
2023/03/07 04:25:14;;;;;;;17.30;9.50;;;;;;;2.81;80.13;100266.96;108036;1253;64030;-86
2023/03/07 04:27:43;;;;;;;18.30;11.00;;;;;;;2.82;80.24;100270.56;109514;1253;72633;-84
2023/03/07 04:30:11;;;;;;;17.40;10.40;;;;;;;2.80;80.17;100272.19;106537;1253;60490;-84
2023/03/07 04:32:41;;;;;;;14.10;9.90;;;;;;;2.78;80.30;100271.25;105993;1254;60411;-86
2023/03/07 04:35:09;;;;;;;16.00;11.60;;;;;;;2.76;80.26;100271.66;106063;1266;74908;-86
2023/03/07 04:37:38;;;;;;;15.30;10.20;;;;;;;2.73;80.46;100274.01;107211;1253;65468;-83
2023/03/07 04:40:07;;;;;;;14.80;9.70;;;;;;;2.73;80.80;100273.81;106239;1253;72340;-86
2023/03/07 04:42:36;;;;;;;25.90;13.30;;;;;;;2.74;80.80;100272.05;105933;1254;62002;-83
2023/03/07 04:45:05;;;;;;;22.60;15.00;;;;;;;2.76;81.12;100273.36;105956;1254;61034;-85
2023/03/07 04:47:34;;;;;;;16.80;10.60;;;;;;;2.77;81.08;100272.11;106010;1254;74941;-85
2023/03/07 04:50:04;;;;;;;13.40;9.40;;;;;;;2.80;81.26;100273.23;105966;1255;65182;-85
2023/03/07 04:52:34;;;;;;;20.00;10.60;;;;;;;2.83;81.23;100270.73;105999;1257;72650;-86
2023/03/07 04:55:03;;;;;;;12.10;8.60;;;;;;;2.84;81.00;100271.71;106100;1256;62120;-85
2023/03/07 04:57:31;;;;;;;13.60;8.50;;;;;;;2.83;81.04;100271.05;105989;1257;60984;-85
2023/03/07 05:00:01;;;;;;;15.50;9.50;;;;;;;2.85;80.97;100267.38;105817;1256;73871;-86
2023/03/07 05:02:30;;;;;;;19.00;9.10;;;;;;;2.86;81.09;100268.39;105952;1256;64788;-85
2023/03/07 05:05:02;;;;;;;19.20;11.10;;;;;;;2.86;81.26;100266.99;105981;1257;72652;-84
2023/03/07 05:07:32;;;;;;;16.10;9.60;;;;;;;2.91;81.36;100269.07;106171;1253;62329;-83
2023/03/07 05:10:00;;;;;;;16.90;9.80;;;;;;;2.99;81.35;100274.68;106089;1258;60974;-85
2023/03/07 05:12:32;;;;;;;12.80;9.50;;;;;;;3.06;81.31;100272.69;105948;1258;75025;-86
2023/03/07 05:15:00;;;;;;;16.60;9.70;;;;;;;3.14;81.04;100271.56;105812;1259;63668;-84
2023/03/07 05:17:29;;;;;;;18.50;10.00;;;;;;;3.20;80.72;100273.23;105796;1255;73940;-85
2023/03/07 05:20:01;;;;;;;13.20;9.60;;;;;;;3.25;80.58;100273.58;105906;1257;60432;-87
2023/03/07 05:22:41;;;;;;;13.60;9.80;;;;;;;3.34;80.42;100268.95;105973;1257;61475;-86
2023/03/07 05:25:11;;;;;;;18.10;11.10;;;;;;;3.45;80.26;100265.11;105963;1256;74594;-87
2023/03/07 05:27:40;;;;;;;24.50;14.30;;;;;;;3.58;80.28;100264.95;105948;1257;63895;-85
2023/03/07 05:30:11;;;;;;;27.70;16.20;;;;;;;3.73;79.80;100270.46;106068;1266;72328;-85
2023/03/07 05:32:40;;;;;;;30.80;16.70;;;;;;;3.83;79.89;100269.90;105949;1256;62223;-86
2023/03/07 05:35:11;;;;;;;27.00;15.30;;;;;;;3.95;79.22;100268.09;105870;1255;60412;-87
2023/03/07 05:37:41;;;;;;;31.40;17.20;;;;;;;4.04;78.81;100267.75;105865;1254;75040;-88
2023/03/07 05:40:11;;;;;;;38.60;16.50;;;;;;;4.09;78.58;100270.98;106023;1256;64627;-86
2023/03/07 05:42:42;;;;;;;25.40;15.50;;;;;;;4.16;78.30;100271.39;106028;1255;73065;-87
2023/03/07 05:45:12;;;;;;;23.30;14.70;;;;;;;4.24;78.00;100279.26;106026;1253;60795;-89
2023/03/07 05:47:42;;;;;;;21.70;14.30;;;;;;;4.28;77.49;100277.18;106053;1256;61291;-85
2023/03/07 05:50:12;;;;;;;27.60;15.20;;;;;;;4.29;77.15;100280.44;106048;1254;74450;-88
2023/03/07 05:52:41;;;;;;;25.00;15.10;;;;;;;4.29;77.07;100279.39;106186;1256;64565;-88
2023/03/07 05:55:10;;;;;;;19.80;12.20;;;;;;;4.32;76.87;100280.65;105909;1258;73855;-89
2023/03/07 05:57:39;;;;;;;23.40;14.10;;;;;;;4.34;76.54;100281.77;105981;1256;62253;-86
2023/03/07 06:00:10;;;;;;;21.90;14.10;;;;;;;4.39;76.81;100277.79;106032;1254;60442;-87
2023/03/07 06:02:45;;;;;;;21.40;14.90;;;;;;;4.52;76.94;100278.31;107835;1254;74944;-83
2023/03/07 06:05:15;;;;;;;26.80;16.20;;;;;;;4.69;76.68;100274.50;106951;1257;64426;-87
2023/03/07 06:07:48;;;;;;;20.00;12.90;;;;;;;4.87;76.05;100274.25;106696;1254;72464;-84
2023/03/07 06:10:17;;;;;;;20.60;13.70;;;;;;;5.01;75.38;100274.55;106239;1257;60467;-86
2023/03/07 06:12:55;;;;;;;24.10;13.90;;;;;;;5.13;74.72;100274.05;105997;1254;60506;-86
2023/03/07 06:15:25;;;;;;;23.10;13.60;;;;;;;5.22;73.98;100281.96;106072;1256;73875;-85
2023/03/07 06:17:59;;;;;;;18.40;12.70;;;;;;;5.27;73.16;100278.61;106771;1259;63687;-86
2023/03/07 06:20:27;;;;;;;23.00;14.40;;;;;;;5.23;72.65;100281.39;106413;1256;72674;-86
2023/03/07 06:22:56;;;;;;;22.30;12.90;;;;;;;5.18;72.63;100278.81;106024;1257;62244;-86
2023/03/07 06:25:25;;;;;;;20.50;12.00;;;;;;;5.14;72.51;100276.39;105945;1254;61326;-84
2023/03/07 06:27:58;;;;;;;18.30;12.40;;;;;;;5.12;72.66;100275.46;105907;1257;74563;-88
2023/03/07 06:30:27;;;;;;;21.60;12.40;;;;;;;5.13;72.52;100271.96;107868;1254;64797;-87
2023/03/07 06:32:55;;;;;;;16.40;11.80;;;;;;;5.15;72.74;100270.28;109064;1252;72733;-85
2023/03/07 06:35:30;;;;;;;23.30;12.30;;;;;;;5.26;72.85;100273.45;109578;1253;60312;-85
2023/03/07 06:37:59;;;;;;;16.50;11.70;;;;;;;5.38;72.16;100269.45;106807;1256;61757;-88
2023/03/07 06:40:27;;;;;;;17.60;12.20;;;;;;;5.48;71.90;100266.63;106959;1258;73757;-88
2023/03/07 06:42:55;;;;;;;22.80;11.30;;;;;;;5.52;71.33;100261.20;108538;1253;63801;-88
2023/03/07 06:45:23;;;;;;;21.50;11.60;;;;;;;5.57;71.32;100263.24;109668;1253;72464;-89
2023/03/07 06:47:59;;;;;;;18.20;11.20;;;;;;;5.63;70.80;100255.73;107644;1254;60412;-87
2023/03/07 06:50:27;;;;;;;15.10;10.50;;;;;;;5.66;70.92;100257.66;106896;1254;61457;-89
2023/03/07 06:53:03;;;;;;;17.60;11.00;;;;;;;5.69;70.56;100255.08;106165;1254;74783;-88
2023/03/07 06:55:33;;;;;;;16.80;11.20;;;;;;;5.70;70.36;100254.53;105879;1257;64849;-88
2023/03/07 06:58:02;;;;;;;14.90;10.50;;;;;;;5.72;70.44;100259.46;106099;1251;72738;-86
2023/03/07 07:00:31;;;;;;;18.50;11.10;;;;;;;5.78;70.49;100265.76;106007;1255;60422;-87
2023/03/07 07:02:59;;;;;;;17.70;11.60;;;;;;;5.86;70.21;100272.70;105937;1257;61327;-88
2023/03/07 07:05:28;;;;;;;16.50;11.10;;;;;;;5.91;70.08;100274.21;106531;1251;73788;-87
2023/03/07 07:07:56;;;;;;;18.90;11.70;;;;;;;5.94;69.48;100278.60;106191;1251;65230;-88
2023/03/07 07:10:25;;;;;;;20.00;12.00;;;;;;;5.91;69.33;100273.85;106139;1252;73282;-86
2023/03/07 07:12:55;;;;;;;19.40;12.30;;;;;;;5.86;69.34;100270.28;106011;1254;60543;-85
2023/03/07 07:15:29;;;;;;;20.10;12.10;;;;;;;5.82;69.58;100260.21;106066;1250;61113;-86
2023/03/07 07:18:00;;;;;;;15.70;11.20;;;;;;;5.81;69.70;100258.88;106299;1257;74970;-88
2023/03/07 07:20:35;;;;;;;16.20;11.40;;;;;;;5.81;69.47;100261.48;108382;1251;65011;-85
2023/03/07 07:23:04;;;;;;;18.40;12.00;;;;;;;5.76;69.82;100262.20;109247;1251;72591;-86
2023/03/07 07:25:33;;;;;;;14.70;10.90;;;;;;;5.80;69.95;100260.46;109352;1251;61032;-85
2023/03/07 07:28:01;;;;;;;15.00;10.90;;;;;;;5.95;70.10;100260.48;108376;1256;60483;-85
2023/03/07 07:30:31;;;;;;;21.70;11.20;;;;;;;6.25;70.04;100255.63;107519;1259;75261;-86
2023/03/07 07:33:02;;;;;;;16.50;11.20;;;;;;;6.69;69.83;100251.74;108324;1251;64802;-88
2023/03/07 07:35:31;;;;;;;14.80;11.40;;;;;;;7.19;67.97;100248.70;108665;1251;73212;-87
2023/03/07 07:38:02;;;;;;;16.20;11.30;;;;;;;7.66;66.64;100249.17;108816;1251;61151;-86
2023/03/07 07:40:31;;;;;;;17.60;12.40;;;;;;;7.91;64.91;100249.74;107216;1257;61176;-87
2023/03/07 07:43:00;;;;;;;15.20;11.60;;;;;;;8.01;64.01;100249.52;106848;1251;73813;-86
2023/03/07 07:45:48;;;;;;;14.50;11.10;;;;;;;7.96;63.43;100244.58;106441;1259;64605;-85
2023/03/07 07:48:20;;;;;;;16.90;11.70;;;;;;;7.83;63.78;100249.66;106055;1254;73603;-88
2023/03/07 07:50:48;;;;;;;16.90;12.10;;;;;;;7.80;64.28;100250.68;105901;1267;60492;-86
2023/03/07 07:53:17;;;;;;;16.90;12.00;;;;;;;7.89;64.15;100251.05;105902;1251;61261;-86
2023/03/07 07:55:47;;;;;;;16.50;11.60;;;;;;;8.04;63.80;100250.92;106172;1251;75204;-86
2023/03/07 07:58:19;;;;;;;19.50;12.10;;;;;;;8.11;63.84;100250.57;106398;1254;64796;-87
2023/03/07 08:00:48;;;;;;;15.50;11.50;;;;;;;8.11;63.47;100250.18;106755;1251;72639;-87
2023/03/07 08:03:17;;;;;;;13.70;10.50;;;;;;;8.15;63.62;100241.79;106332;1256;61179;-86
2023/03/07 08:05:47;;;;;;;13.90;10.50;;;;;;;8.23;63.83;100240.82;106322;1260;60611;-88
2023/03/07 08:08:17;;;;;;;13.80;9.40;;;;;;;8.46;63.78;100244.23;106649;1256;75104;-85
2023/03/07 08:10:45;;;;;;;14.40;8.80;;;;;;;8.71;62.82;100241.04;107153;1251;63741;-88
2023/03/07 08:13:16;;;;;;;13.20;10.10;;;;;;;8.99;61.70;100247.10;106602;1251;73496;-87
2023/03/07 08:15:46;;;;;;;15.30;10.70;;;;;;;9.20;60.92;100242.16;106898;1251;60580;-85
2023/03/07 08:18:17;;;;;;;16.80;10.00;;;;;;;9.40;60.41;100243.93;106835;1251;60483;-86
2023/03/07 08:20:46;;;;;;;17.10;11.80;;;;;;;9.60;59.67;100243.73;106680;1258;74681;-86
2023/03/07 08:23:15;;;;;;;21.60;10.80;;;;;;;9.71;59.11;100242.19;106670;1256;64793;-86
2023/03/07 08:25:43;;;;;;;17.10;10.70;;;;;;;9.78;58.71;100243.33;106913;1251;72548;-86
2023/03/07 08:28:14;;;;;;;15.90;10.10;;;;;;;9.88;58.86;100235.35;106508;1251;60623;-88
2023/03/07 08:30:43;;;;;;;17.40;11.70;;;;;;;9.96;58.42;100232.38;106407;1251;61265;-86
2023/03/07 08:33:13;;;;;;;15.20;9.60;;;;;;;10.03;58.22;100234.42;106880;1251;73500;-84
2023/03/07 08:35:42;;;;;;;17.10;10.90;;;;;;;10.04;58.08;100236.10;106255;1258;64673;-86
2023/03/07 08:38:11;;;;;;;19.20;13.00;;;;;;;10.05;58.21;100234.29;106858;1256;72674;-88
2023/03/07 08:40:39;;;;;;;41.10;26.30;;;;;;;10.13;58.08;100237.48;106089;1256;61120;-87
2023/03/07 08:43:09;;;;;;;34.20;21.90;;;;;;;10.14;57.82;100236.30;106487;1251;60434;-88
2023/03/07 08:45:40;;;;;;;40.80;24.80;;;;;;;10.12;57.62;100233.98;106445;1251;73277;-86
2023/03/07 08:48:09;;;;;;;24.80;15.80;;;;;;;10.08;58.11;100230.61;107060;1251;64956;-87
2023/03/07 08:50:38;;;;;;;18.00;11.20;;;;;;;10.15;58.05;100228.75;107837;1251;72301;-87
2023/03/07 08:53:07;;;;;;;14.40;11.10;;;;;;;10.27;57.65;100226.93;109677;1251;60042;-86
2023/03/07 08:55:35;;;;;;;15.80;10.80;;;;;;;10.38;56.89;100230.63;108397;1256;60261;-86
2023/03/07 08:58:05;;;;;;;13.80;10.70;;;;;;;10.47;56.61;100227.75;106851;1257;74879;-88
2023/03/07 09:00:34;;;;;;;15.30;10.70;;;;;;;10.53;55.98;100232.06;107311;1251;65078;-88
2023/03/07 09:03:03;;;;;;;17.30;12.00;;;;;;;10.52;55.86;100230.55;109365;1251;72617;-87
2023/03/07 09:05:31;;;;;;;14.50;10.60;;;;;;;10.58;56.00;100225.10;109009;1251;60373;-85
2023/03/07 09:08:00;;;;;;;15.50;12.60;;;;;;;10.61;55.76;100225.81;106457;1254;60591;-86
2023/03/07 09:10:31;;;;;;;30.20;20.50;;;;;;;10.55;55.93;100222.63;106483;1257;74972;-89
2023/03/07 09:13:00;;;;;;;19.50;13.40;;;;;;;10.55;56.18;100220.25;106563;1257;64880;-89
2023/03/07 09:15:28;;;;;;;18.50;11.90;;;;;;;10.52;56.01;100222.71;106370;1251;73675;-87
2023/03/07 09:17:57;;;;;;;14.90;12.30;;;;;;;10.47;56.27;100224.08;106445;1251;60367;-86
2023/03/07 09:20:25;;;;;;;19.50;14.30;;;;;;;10.38;56.46;100222.55;106591;1257;61349;-87
2023/03/07 09:22:54;;;;;;;19.10;12.80;;;;;;;10.36;56.84;100220.62;106826;1251;73891;-88
2023/03/07 09:25:22;;;;;;;20.30;13.60;;;;;;;10.46;57.13;100220.85;107132;1255;63885;-85
2023/03/07 09:27:53;;;;;;;15.10;11.70;;;;;;;10.56;56.64;100218.77;108082;1251;74312;-87
2023/03/07 09:30:24;;;;;;;22.10;13.30;;;;;;;10.62;56.71;100214.20;108392;1251;60512;-84
2023/03/07 09:32:52;;;;;;;18.00;12.10;;;;;;;10.71;56.54;100212.52;107164;1251;60540;-89
2023/03/07 09:35:22;;;;;;;16.80;12.50;;;;;;;10.74;56.21;100213.16;106559;1257;74796;-87
2023/03/07 09:37:50;;;;;;;15.60;12.00;;;;;;;10.76;56.46;100206.61;106600;1251;64472;-87
2023/03/07 09:40:22;;;;;;;18.90;12.90;;;;;;;10.81;56.36;100206.60;106328;1257;72601;-88
2023/03/07 09:42:57;;;;;;;17.80;12.50;;;;;;;10.83;56.23;100199.13;106516;1254;60428;-89
2023/03/07 09:45:30;;;;;;;18.50;14.30;;;;;;;10.75;55.66;100200.36;106405;1250;60461;-85
2023/03/07 09:48:24;;;;;;;22.00;13.90;;;;;;;10.60;55.78;100193.52;106149;1257;73999;-88
2023/03/07 09:50:59;;;;;;;23.90;14.80;;;;;;;10.53;56.06;100193.64;106332;1251;63505;-87
2023/03/07 09:53:53;;;;;;;23.10;15.00;;;;;;;10.62;56.48;100186.55;106465;1254;73648;-86
2023/03/07 09:56:38;;;;;;;26.70;17.30;;;;;;;10.92;56.09;100179.81;106476;1254;61353;-87
2023/03/07 09:59:35;;;;;;;21.10;14.30;;;;;;;11.28;55.84;100172.39;106316;1254;61005;-86
2023/03/07 10:02:29;;;;;;;21.60;14.30;;;;;;;11.68;54.75;100167.81;106641;1251;74747;-87
2023/03/07 10:05:01;;;;;;;16.50;10.90;;;;;;;11.89;53.60;100164.89;106462;1254;64912;-87
2023/03/07 10:07:31;;;;;;;18.40;11.70;;;;;;;11.88;53.16;100155.39;106510;1254;73940;-87
2023/03/07 10:10:23;;;;;;;14.20;10.30;;;;;;;11.81;52.57;100155.17;106366;1252;60707;-87
2023/03/07 10:13:37;;;;;;;16.50;11.90;;;;;;;11.73;52.85;100144.02;106542;1254;61108;-88
2023/03/07 10:16:23;;;;;;;13.80;10.00;;;;;;;11.73;53.00;100141.05;106082;1258;74691;-88
2023/03/07 10:19:22;;;;;;;13.80;10.70;;;;;;;11.61;53.10;100138.55;106948;1258;63819;-84
2023/03/07 10:22:02;;;;;;;13.40;11.50;;;;;;;11.50;52.69;100137.41;107317;1262;72648;-85
2023/03/07 10:24:51;;;;;;;15.10;10.70;;;;;;;11.38;52.76;100129.16;108148;1263;60553;-84
2023/03/07 10:27:25;;;;;;;14.30;10.30;;;;;;;11.28;53.16;100126.59;105511;1263;61490;-87
2023/03/07 10:29:55;;;;;;;16.60;11.50;;;;;;;11.25;53.57;100122.76;105486;1263;74710;-87
2023/03/07 10:32:42;;;;;;;18.90;12.10;;;;;;;11.27;53.57;100121.23;105461;1263;64831;-88
2023/03/07 10:35:12;;;;;;;11.50;9.60;;;;;;;11.33;53.48;100118.89;105438;1264;73338;-87
2023/03/07 10:37:52;;;;;;;11.60;8.60;;;;;;;11.52;51.86;100114.73;105665;1262;61067;-88
2023/03/07 10:40:29;;;;;;;12.60;9.20;;;;;;;11.75;50.42;100112.35;105647;1266;61918;-90
2023/03/07 10:42:57;;;;;;;12.90;8.60;;;;;;;12.02;50.06;100112.36;105790;1267;73670;-88
2023/03/07 10:45:28;;;;;;;11.70;8.80;;;;;;;12.26;49.44;100100.36;105659;1263;64219;-87
2023/03/07 10:48:07;;;;;;;11.00;7.70;;;;;;;12.49;48.65;100098.42;105865;1264;73096;-89
2023/03/07 10:50:50;;;;;;;11.60;8.10;;;;;;;12.65;47.35;100090.55;105622;1266;60393;-87
2023/03/07 10:53:28;;;;;;;14.00;9.30;;;;;;;12.70;47.63;100082.67;105846;1260;60421;-85
2023/03/07 10:56:08;;;;;;;13.80;8.80;;;;;;;12.82;47.24;100082.73;105903;1259;73233;-88
2023/03/07 10:59:04;;;;;;;12.00;8.80;;;;;;;13.00;47.17;100078.02;105899;1251;64709;-88
2023/03/07 11:01:32;;;;;;;12.90;9.60;;;;;;;13.19;47.01;100075.41;106221;1251;73678;-87
2023/03/07 11:04:05;;;;;;;13.90;9.20;;;;;;;13.26;46.42;100073.29;106701;1251;60392;-86
2023/03/07 11:06:43;;;;;;;13.90;10.40;;;;;;;13.21;45.63;100069.14;107425;1251;60674;-88
2023/03/07 11:14:47;;;;;;;21.60;14.50;;;;;;;12.61;45.93;100050.66;103833;1288;600967;-89
2023/03/07 11:17:25;;;;;;;19.20;13.50;;;;;;;12.42;46.38;100044.83;105876;1264;60730;-86
2023/03/07 11:19:55;;;;;;;21.10;13.60;;;;;;;12.26;46.86;100041.81;107670;1265;60002;-87
2023/03/07 11:22:34;;;;;;;19.20;13.30;;;;;;;12.13;47.26;100042.95;108926;1263;72048;-87
2023/03/07 11:25:12;;;;;;;17.90;13.50;;;;;;;11.94;47.30;100039.50;106172;1262;63789;-86
2023/03/07 11:27:44;;;;;;;22.30;15.30;;;;;;;11.67;47.98;100037.62;104987;1261;773741;-87
2023/03/07 11:30:18;;;;;;;23.40;15.40;;;;;;;11.48;48.23;100036.89;105514;1264;61306;-86
2023/03/07 11:33:24;;;;;;;22.70;15.00;;;;;;;11.39;48.74;100036.84;105877;1264;60262;-88
2023/03/07 11:36:00;;;;;;;22.50;14.90;;;;;;;11.29;49.01;100038.81;105555;1263;73686;-90
2023/03/07 11:39:02;;;;;;;20.10;14.80;;;;;;;11.24;49.19;100038.00;105464;1266;64885;-88